createdAt,value
2023-01-10T00:00:13.337Z,8.85
2023-01-10T00:00:48.465Z,9.33
2023-01-10T00:01:14.269Z,9.33
2023-01-10T00:01:47.123Z,9.33
2023-01-10T00:02:16.316Z,9.33
2023-01-10T00:02:50.016Z,9.33
2023-01-10T00:03:18.222Z,9.33
2023-01-10T00:03:49.234Z,9.33
2023-01-10T00:04:21.218Z,9.33
2023-01-10T00:04:52.286Z,9.33
2023-01-10T00:05:22.949Z,9.33
2023-01-10T00:05:53.320Z,9.65
2023-01-10T00:06:24.851Z,9.65
2023-01-10T00:06:55.304Z,9.65
2023-01-10T00:07:27.673Z,9.65
2023-01-10T00:07:58.245Z,9.65
2023-01-10T00:08:29.235Z,9.65
2023-01-10T00:08:59.244Z,9.65
2023-01-10T00:09:30.859Z,9.65
2023-01-10T00:10:03.510Z,9.65
2023-01-10T00:10:38.815Z,9.65
2023-01-10T00:11:04.800Z,9.65
2023-01-10T00:11:34.858Z,9.65
2023-01-10T00:12:07.182Z,9.65
2023-01-10T00:12:36.245Z,9.65
2023-01-10T00:13:09.203Z,9.65
2023-01-10T00:13:38.220Z,9.65
2023-01-10T00:14:09.227Z,9.65
2023-01-10T00:14:42.286Z,9.33
2023-01-10T00:15:11.357Z,8.85
2023-01-10T00:15:43.328Z,8.29
2023-01-10T00:16:13.268Z,7.15
2023-01-10T00:16:44.978Z,7.15
2023-01-10T00:17:15.260Z,6.43
2023-01-10T00:17:46.924Z,6.43
2023-01-10T00:18:18.280Z,6.43
2023-01-10T00:18:49.084Z,6.43
2023-01-10T00:19:19.343Z,6.43
2023-01-10T00:19:50.720Z,6.43
2023-01-10T00:20:22.225Z,6.43
2023-01-10T00:20:52.244Z,7.15
2023-01-10T00:21:24.111Z,7.15
2023-01-10T00:21:54.226Z,8.04
2023-01-10T00:22:27.943Z,7.40
2023-01-10T00:22:56.245Z,7.56
2023-01-10T00:23:29.673Z,8.20
2023-01-10T00:23:58.243Z,8.20
2023-01-10T00:24:31.041Z,8.20
2023-01-10T00:25:01.968Z,8.45
2023-01-10T00:25:31.936Z,8.45
2023-01-10T00:26:02.280Z,8.45
2023-01-10T00:26:34.105Z,8.45
2023-01-10T00:27:04.236Z,8.20
2023-01-10T00:27:36.857Z,8.20
2023-01-10T00:28:06.253Z,8.04
2023-01-10T00:28:39.071Z,8.29
2023-01-10T00:29:08.272Z,8.29
2023-01-10T00:29:39.857Z,8.29
2023-01-10T00:30:11.402Z,7.72
2023-01-10T00:30:42.600Z,7.56
2023-01-10T00:31:12.595Z,7.40
2023-01-10T00:31:46.013Z,7.40
2023-01-10T00:32:14.560Z,7.24
2023-01-10T00:32:45.263Z,7.24
2023-01-10T00:33:16.966Z,7.24
2023-01-10T00:33:48.265Z,7.24
2023-01-10T00:34:19.443Z,7.24
2023-01-10T00:34:49.251Z,7.08
2023-01-10T00:35:21.268Z,7.08
2023-01-10T00:35:51.246Z,6.92
2023-01-10T00:36:22.939Z,6.92
2023-01-10T00:36:53.330Z,6.92
2023-01-10T00:37:24.814Z,6.92
2023-01-10T00:37:55.443Z,7.08
2023-01-10T00:38:26.887Z,7.08
2023-01-10T00:38:58.300Z,7.08
2023-01-10T00:39:29.021Z,6.92
2023-01-10T00:39:59.257Z,6.92
2023-01-10T00:40:39.035Z,7.08
2023-01-10T00:41:01.397Z,6.92
2023-01-10T00:41:33.089Z,7.08
2023-01-10T00:42:03.619Z,7.08
2023-01-10T00:42:34.934Z,7.08
2023-01-10T00:43:05.263Z,6.84
2023-01-10T00:43:36.920Z,6.84
2023-01-10T00:44:08.302Z,6.84
2023-01-10T00:44:38.960Z,7.24
2023-01-10T00:45:11.045Z,7.24
2023-01-10T00:45:40.990Z,7.24
2023-01-10T00:46:11.314Z,7.24
2023-01-10T00:46:43.756Z,7.56
2023-01-10T00:47:13.241Z,7.56
2023-01-10T00:47:45.982Z,7.56
2023-01-10T00:48:15.210Z,7.56
2023-01-10T00:48:46.810Z,7.56
2023-01-10T00:49:18.277Z,7.56
2023-01-10T00:49:48.905Z,8.29
2023-01-10T00:50:19.665Z,8.29
2023-01-10T00:50:52.267Z,9.01
2023-01-10T00:51:21.296Z,9.33
2023-01-10T00:51:53.190Z,9.33
2023-01-10T00:52:26.039Z,9.33
2023-01-10T00:52:54.381Z,9.33
2023-01-10T00:53:25.272Z,9.33
2023-01-10T00:53:56.871Z,9.33
2023-01-10T00:54:29.040Z,9.33
2023-01-10T00:54:58.936Z,9.73
2023-01-10T00:55:29.646Z,9.89
2023-01-10T00:56:01.244Z,10.30
2023-01-10T00:56:31.288Z,9.89
2023-01-10T00:57:02.864Z,10.30
2023-01-10T00:57:33.206Z,10.30
2023-01-10T00:58:04.873Z,10.30
2023-01-10T00:58:35.931Z,10.30
2023-01-10T00:59:06.870Z,10.30
2023-01-10T00:59:38.371Z,10.30
2023-01-10T01:00:10.946Z,10.30
2023-01-10T01:00:46.956Z,10.30
2023-01-10T01:01:11.594Z,9.89
2023-01-10T01:01:41.535Z,9.49
2023-01-10T01:02:13.253Z,9.49
2023-01-10T01:02:43.671Z,9.89
2023-01-10T01:03:14.971Z,9.89
2023-01-10T01:03:45.267Z,10.06
2023-01-10T01:04:16.836Z,10.30
2023-01-10T01:04:48.176Z,9.89
2023-01-10T01:05:19.435Z,9.89
2023-01-10T01:05:49.248Z,10.30
2023-01-10T01:06:20.948Z,9.73
2023-01-10T01:06:51.266Z,10.30
2023-01-10T01:07:23.919Z,10.30
2023-01-10T01:07:53.267Z,10.46
2023-01-10T01:08:24.982Z,10.46
2023-01-10T01:08:55.318Z,10.46
2023-01-10T01:09:26.980Z,10.46
2023-01-10T01:09:58.283Z,10.30
2023-01-10T01:10:30.829Z,9.73
2023-01-10T01:10:59.232Z,9.33
2023-01-10T01:11:30.828Z,9.73
2023-01-10T01:12:02.561Z,10.30
2023-01-10T01:12:32.976Z,10.30
2023-01-10T01:13:03.645Z,10.30
2023-01-10T01:13:34.939Z,10.30
2023-01-10T01:14:05.240Z,10.30
2023-01-10T01:14:37.532Z,10.62
2023-01-10T01:15:09.585Z,10.62
2023-01-10T01:15:39.128Z,10.62
2023-01-10T01:16:09.311Z,10.62
2023-01-10T01:16:40.920Z,11.18
2023-01-10T01:17:11.216Z,11.74
2023-01-10T01:17:43.208Z,11.18
2023-01-10T01:18:13.308Z,11.18
2023-01-10T01:18:45.148Z,11.18
2023-01-10T01:19:15.253Z,11.18
2023-01-10T01:19:46.237Z,11.02
2023-01-10T01:20:19.587Z,11.02
2023-01-10T01:20:48.626Z,11.02
2023-01-10T01:21:20.806Z,11.34
2023-01-10T01:21:50.411Z,10.78
2023-01-10T01:22:21.817Z,10.78
2023-01-10T01:22:52.252Z,10.78
2023-01-10T01:23:30.658Z,10.46
2023-01-10T01:23:54.242Z,10.46
2023-01-10T01:24:25.812Z,10.46
2023-01-10T01:24:56.237Z,10.30
2023-01-10T01:25:29.508Z,9.89
2023-01-10T01:25:58.291Z,9.49
2023-01-10T01:26:30.059Z,9.49
2023-01-10T01:27:00.200Z,9.49
2023-01-10T01:27:32.193Z,9.01
2023-01-10T01:28:02.322Z,8.29
2023-01-10T01:28:33.824Z,8.29
2023-01-10T01:29:04.280Z,9.01
2023-01-10T01:29:43.068Z,9.01
2023-01-10T01:30:07.134Z,9.58
2023-01-10T01:30:39.791Z,10.46
2023-01-10T01:31:08.291Z,10.46
2023-01-10T01:31:39.234Z,10.06
2023-01-10T01:32:11.085Z,9.89
2023-01-10T01:32:41.225Z,9.89
2023-01-10T01:33:13.016Z,9.17
2023-01-10T01:33:43.513Z,9.89
2023-01-10T01:34:15.100Z,10.62
2023-01-10T01:34:45.245Z,10.62
2023-01-10T01:35:17.599Z,11.10
2023-01-10T01:35:48.213Z,11.10
2023-01-10T01:36:19.010Z,11.10
2023-01-10T01:36:49.229Z,11.10
2023-01-10T01:37:21.020Z,10.62
2023-01-10T01:37:51.226Z,11.10
2023-01-10T01:38:23.247Z,11.10
2023-01-10T01:38:53.740Z,11.10
2023-01-10T01:39:25.558Z,11.10
2023-01-10T01:39:55.276Z,11.10
2023-01-10T01:40:35.112Z,10.62
2023-01-10T01:40:58.455Z,10.62
2023-01-10T01:41:29.477Z,11.10
2023-01-10T01:41:59.277Z,11.10
2023-01-10T01:42:31.568Z,11.10
2023-01-10T01:43:01.231Z,11.10
2023-01-10T01:43:33.235Z,11.10
2023-01-10T01:44:06.011Z,10.38
2023-01-10T01:44:35.889Z,10.06
2023-01-10T01:45:06.381Z,10.06
2023-01-10T01:45:37.251Z,9.65
2023-01-10T01:46:08.288Z,9.33
2023-01-10T01:46:39.879Z,9.65
2023-01-10T01:47:09.209Z,10.06
2023-01-10T01:47:40.942Z,10.78
2023-01-10T01:48:11.287Z,10.06
2023-01-10T01:48:42.939Z,9.65
2023-01-10T01:49:13.297Z,9.33
2023-01-10T01:49:45.013Z,9.01
2023-01-10T01:50:15.837Z,8.85
2023-01-10T01:50:46.924Z,9.01
2023-01-10T01:51:18.242Z,8.85
2023-01-10T01:51:48.942Z,8.85
2023-01-10T01:52:19.715Z,9.01
2023-01-10T01:52:50.923Z,8.85
2023-01-10T01:53:21.853Z,8.85
2023-01-10T01:53:53.035Z,9.33
2023-01-10T01:54:23.498Z,8.85
2023-01-10T01:54:55.447Z,8.85
2023-01-10T01:55:25.646Z,9.33
2023-01-10T01:55:56.987Z,10.22
2023-01-10T01:56:28.289Z,10.94
2023-01-10T01:56:59.035Z,10.22
2023-01-10T01:57:29.215Z,9.89
2023-01-10T01:58:01.138Z,9.89
2023-01-10T01:58:31.789Z,10.46
2023-01-10T01:59:03.016Z,10.62
2023-01-10T01:59:33.260Z,10.94
2023-01-10T02:00:07.802Z,10.94
2023-01-10T02:00:35.462Z,10.94
2023-01-10T02:01:06.954Z,10.94
2023-01-10T02:01:39.049Z,11.10
2023-01-10T02:02:09.207Z,11.34
2023-01-10T02:02:39.571Z,11.34
2023-01-10T02:03:11.027Z,11.74
2023-01-10T02:03:41.245Z,11.74
2023-01-10T02:04:13.180Z,11.74
2023-01-10T02:04:43.529Z,11.74
2023-01-10T02:05:16.573Z,11.74
2023-01-10T02:05:45.556Z,11.58
2023-01-10T02:06:16.226Z,11.58
2023-01-10T02:06:49.145Z,11.74
2023-01-10T02:07:18.252Z,11.90
2023-01-10T02:07:49.961Z,12.07
2023-01-10T02:08:20.231Z,12.07
2023-01-10T02:08:52.322Z,12.07
2023-01-10T02:09:22.222Z,13.12
2023-01-10T02:09:53.909Z,13.12
2023-01-10T02:10:24.636Z,14.16
2023-01-10T02:10:56.303Z,14.72
2023-01-10T02:11:26.189Z,14.72
2023-01-10T02:11:59.014Z,14.72
2023-01-10T02:12:28.707Z,15.12
2023-01-10T02:12:59.897Z,15.12
2023-01-10T02:13:30.191Z,15.12
2023-01-10T02:14:01.937Z,15.12
2023-01-10T02:14:32.184Z,15.12
2023-01-10T02:15:06.385Z,15.12
2023-01-10T02:15:34.257Z,14.96
2023-01-10T02:16:06.165Z,14.96
2023-01-10T02:16:36.247Z,14.56
2023-01-10T02:17:08.809Z,14.56
2023-01-10T02:17:38.357Z,14.32
2023-01-10T02:18:10.558Z,14.32
2023-01-10T02:18:40.219Z,14.32
2023-01-10T02:19:11.997Z,14.32
2023-01-10T02:19:42.375Z,14.32
2023-01-10T02:20:13.673Z,14.32
2023-01-10T02:20:46.329Z,14.00
2023-01-10T02:21:15.192Z,14.00
2023-01-10T02:21:47.479Z,13.51
2023-01-10T02:22:18.193Z,13.51
2023-01-10T02:22:49.228Z,13.19
2023-01-10T02:23:19.227Z,13.19
2023-01-10T02:23:52.376Z,12.79
2023-01-10T02:24:21.270Z,12.79
2023-01-10T02:24:52.205Z,12.55
2023-01-10T02:25:24.950Z,12.55
2023-01-10T02:25:54.522Z,12.39
2023-01-10T02:26:26.087Z,12.55
2023-01-10T02:26:56.182Z,12.55
2023-01-10T02:27:29.087Z,12.55
2023-01-10T02:27:58.241Z,12.39
2023-01-10T02:28:30.484Z,12.39
2023-01-10T02:29:00.206Z,12.23
2023-01-10T02:29:32.193Z,12.23
2023-01-10T02:30:03.402Z,12.23
2023-01-10T02:30:34.262Z,12.07
2023-01-10T02:31:04.231Z,12.07
2023-01-10T02:31:36.600Z,12.07
2023-01-10T02:32:06.680Z,12.07
2023-01-10T02:32:48.029Z,11.90
2023-01-10T02:33:08.250Z,12.07
2023-01-10T02:33:39.221Z,12.07
2023-01-10T02:34:10.918Z,12.07
2023-01-10T02:34:41.207Z,12.07
2023-01-10T02:35:13.948Z,12.07
2023-01-10T02:35:43.790Z,12.23
2023-01-10T02:36:15.366Z,12.63
2023-01-10T02:36:45.268Z,12.23
2023-01-10T02:37:17.216Z,12.23
2023-01-10T02:37:48.201Z,12.63
2023-01-10T02:38:18.920Z,13.03
2023-01-10T02:38:49.204Z,13.03
2023-01-10T02:39:21.173Z,13.03
2023-01-10T02:39:51.223Z,13.03
2023-01-10T02:40:23.515Z,13.03
2023-01-10T02:40:53.290Z,13.35
2023-01-10T02:41:25.066Z,13.67
2023-01-10T02:41:55.631Z,13.67
2023-01-10T02:42:26.990Z,13.35
2023-01-10T02:42:58.234Z,13.35
2023-01-10T02:43:34.815Z,13.03
2023-01-10T02:43:59.758Z,13.03
2023-01-10T02:44:30.193Z,13.03
2023-01-10T02:45:03.261Z,13.03
2023-01-10T02:45:32.289Z,13.03
2023-01-10T02:46:04.456Z,13.03
2023-01-10T02:46:34.215Z,12.79
2023-01-10T02:47:06.096Z,13.03
2023-01-10T02:47:36.232Z,13.19
2023-01-10T02:48:08.999Z,13.19
2023-01-10T02:48:38.205Z,12.79
2023-01-10T02:49:09.896Z,12.39
2023-01-10T02:49:40.245Z,12.39
2023-01-10T02:50:12.740Z,11.67
2023-01-10T02:50:42.463Z,12.39
2023-01-10T02:51:14.111Z,12.39
2023-01-10T02:51:44.196Z,12.39
2023-01-10T02:52:16.069Z,12.79
2023-01-10T02:52:46.573Z,13.19
2023-01-10T02:53:18.933Z,13.35
2023-01-10T02:53:48.224Z,13.51
2023-01-10T02:54:20.219Z,13.67
2023-01-10T02:54:50.184Z,14.00
2023-01-10T02:55:22.791Z,14.56
2023-01-10T02:55:52.271Z,14.80
2023-01-10T02:56:24.504Z,14.96
2023-01-10T02:56:54.251Z,15.12
2023-01-10T02:57:25.807Z,14.96
2023-01-10T02:57:56.240Z,14.96
2023-01-10T02:58:28.990Z,14.96
2023-01-10T02:58:58.215Z,15.12
2023-01-10T02:59:30.250Z,15.29
2023-01-10T03:00:01.905Z,15.29
2023-01-10T03:00:32.462Z,15.29
2023-01-10T03:01:04.077Z,15.45
2023-01-10T03:01:34.719Z,15.29
2023-01-10T03:02:04.971Z,15.29
2023-01-10T03:02:36.624Z,15.85
2023-01-10T03:03:06.301Z,15.85
2023-01-10T03:03:44.974Z,16.25
2023-01-10T03:04:09.140Z,15.85
2023-01-10T03:04:39.461Z,15.85
2023-01-10T03:05:12.087Z,15.29
2023-01-10T03:05:41.680Z,15.29
2023-01-10T03:06:13.704Z,15.12
2023-01-10T03:06:43.533Z,15.12
2023-01-10T03:07:15.142Z,14.96
2023-01-10T03:07:45.887Z,14.96
2023-01-10T03:08:16.975Z,14.96
2023-01-10T03:08:48.787Z,15.12
2023-01-10T03:09:19.101Z,14.96
2023-01-10T03:09:49.211Z,14.56
2023-01-10T03:10:21.401Z,14.56
2023-01-10T03:10:51.178Z,14.56
2023-01-10T03:11:23.157Z,14.56
2023-01-10T03:11:53.215Z,14.16
2023-01-10T03:12:25.113Z,14.16
2023-01-10T03:12:55.674Z,14.16
2023-01-10T03:13:27.091Z,13.84
2023-01-10T03:13:58.205Z,13.51
2023-01-10T03:14:29.097Z,13.84
2023-01-10T03:14:59.940Z,13.84
2023-01-10T03:15:31.718Z,13.84
2023-01-10T03:16:01.243Z,13.51
2023-01-10T03:16:33.266Z,13.35
2023-01-10T03:17:04.937Z,13.35
2023-01-10T03:17:35.517Z,13.35
2023-01-10T03:18:05.453Z,13.35
2023-01-10T03:18:37.248Z,13.68
2023-01-10T03:19:08.212Z,13.68
2023-01-10T03:19:38.766Z,14.00
2023-01-10T03:20:09.693Z,14.16
2023-01-10T03:20:41.210Z,14.56
2023-01-10T03:21:11.485Z,14.80
2023-01-10T03:21:43.204Z,14.80
2023-01-10T03:22:13.241Z,15.85
2023-01-10T03:22:44.982Z,15.85
2023-01-10T03:23:15.223Z,14.80
2023-01-10T03:23:46.997Z,15.69
2023-01-10T03:24:18.194Z,16.73
2023-01-10T03:24:49.009Z,15.69
2023-01-10T03:25:19.800Z,15.69
2023-01-10T03:25:50.952Z,16.01
2023-01-10T03:26:21.715Z,16.01
2023-01-10T03:26:53.051Z,16.01
2023-01-10T03:27:27.995Z,15.85
2023-01-10T03:27:55.048Z,16.41
2023-01-10T03:28:25.218Z,16.73
2023-01-10T03:28:57.028Z,16.41
2023-01-10T03:29:28.175Z,15.85
2023-01-10T03:29:59.719Z,16.01
2023-01-10T03:30:29.473Z,15.61
2023-01-10T03:31:01.279Z,15.61
2023-01-10T03:31:31.259Z,15.45
2023-01-10T03:32:03.136Z,15.13
2023-01-10T03:32:33.225Z,14.80
2023-01-10T03:33:05.303Z,14.80
2023-01-10T03:33:35.236Z,14.56
2023-01-10T03:34:07.205Z,14.32
2023-01-10T03:34:38.203Z,14.32
2023-01-10T03:35:09.328Z,14.32
2023-01-10T03:35:39.316Z,14.56
2023-01-10T03:36:10.819Z,14.32
2023-01-10T03:36:41.204Z,14.32
2023-01-10T03:37:13.641Z,14.00
2023-01-10T03:37:43.538Z,13.67
2023-01-10T03:38:15.320Z,13.35
2023-01-10T03:38:45.319Z,12.79
2023-01-10T03:39:16.911Z,12.79
2023-01-10T03:39:48.216Z,12.39
2023-01-10T03:40:19.618Z,12.39
2023-01-10T03:40:49.231Z,12.39
2023-01-10T03:41:20.900Z,12.39
2023-01-10T03:41:51.207Z,12.79
2023-01-10T03:42:22.917Z,12.79
2023-01-10T03:42:53.207Z,12.23
2023-01-10T03:43:25.146Z,12.39
2023-01-10T03:43:55.222Z,12.39
2023-01-10T03:44:26.977Z,12.07
2023-01-10T03:44:58.986Z,11.90
2023-01-10T03:45:28.964Z,11.50
2023-01-10T03:45:59.200Z,11.10
2023-01-10T03:46:31.280Z,11.10
2023-01-10T03:47:01.226Z,10.94
2023-01-10T03:47:32.882Z,11.10
2023-01-10T03:48:03.836Z,10.94
2023-01-10T03:48:35.418Z,10.78
2023-01-10T03:49:05.700Z,10.78
2023-01-10T03:49:36.889Z,10.78
2023-01-10T03:50:08.690Z,10.78
2023-01-10T03:50:39.106Z,10.78
2023-01-10T03:51:09.928Z,10.78
2023-01-10T03:51:40.982Z,10.78
2023-01-10T03:52:11.221Z,10.78
2023-01-10T03:52:43.103Z,10.78
2023-01-10T03:53:13.235Z,10.94
2023-01-10T03:53:45.131Z,10.78
2023-01-10T03:54:15.251Z,10.78
2023-01-10T03:54:47.109Z,10.94
2023-01-10T03:55:18.609Z,10.94
2023-01-10T03:55:49.085Z,11.83
2023-01-10T03:56:19.181Z,12.39
2023-01-10T03:56:51.265Z,12.79
2023-01-10T03:57:21.476Z,13.03
2023-01-10T03:57:53.105Z,13.03
2023-01-10T03:58:23.816Z,13.03
2023-01-10T03:58:55.094Z,13.03
2023-01-10T03:59:25.177Z,13.19
2023-01-10T03:59:58.092Z,13.19
2023-01-10T04:00:28.328Z,13.51
2023-01-10T04:00:59.334Z,13.51
2023-01-10T04:01:29.299Z,13.51
2023-01-10T04:02:01.437Z,13.51
2023-01-10T04:02:31.243Z,13.68
2023-01-10T04:03:03.249Z,13.68
2023-01-10T04:03:33.721Z,13.68
2023-01-10T04:04:05.373Z,13.68
2023-01-10T04:04:35.897Z,13.68
2023-01-10T04:05:07.353Z,13.35
2023-01-10T04:05:38.265Z,13.35
2023-01-10T04:06:09.246Z,12.79
2023-01-10T04:06:39.830Z,12.63
2023-01-10T04:07:16.750Z,11.74
2023-01-10T04:07:41.960Z,11.74
2023-01-10T04:08:12.389Z,11.74
2023-01-10T04:08:44.922Z,11.74
2023-01-10T04:09:14.397Z,12.47
2023-01-10T04:09:46.032Z,11.50
2023-01-10T04:10:16.617Z,11.50
2023-01-10T04:10:48.887Z,11.50
2023-01-10T04:11:18.170Z,12.07
2023-01-10T04:11:49.746Z,12.07
2023-01-10T04:12:20.190Z,12.07
2023-01-10T04:12:52.122Z,11.34
2023-01-10T04:13:22.313Z,11.34
2023-01-10T04:13:54.255Z,12.07
2023-01-10T04:14:24.183Z,12.07
2023-01-10T04:14:56.950Z,11.34
2023-01-10T04:15:26.277Z,10.62
2023-01-10T04:15:59.494Z,10.62
2023-01-10T04:16:28.227Z,10.62
2023-01-10T04:16:59.983Z,10.78
2023-01-10T04:17:30.537Z,11.50
2023-01-10T04:18:01.900Z,11.18
2023-01-10T04:18:32.251Z,10.78
2023-01-10T04:19:04.471Z,10.62
2023-01-10T04:19:34.269Z,10.62
2023-01-10T04:20:06.707Z,10.78
2023-01-10T04:20:37.198Z,10.62
2023-01-10T04:21:08.275Z,10.46
2023-01-10T04:21:39.715Z,10.30
2023-01-10T04:22:09.268Z,10.13
2023-01-10T04:22:41.117Z,10.13
2023-01-10T04:23:11.253Z,9.89
2023-01-10T04:23:43.344Z,9.49
2023-01-10T04:24:13.933Z,9.33
2023-01-10T04:24:45.225Z,9.49
2023-01-10T04:25:15.783Z,9.49
2023-01-10T04:25:46.951Z,9.33
2023-01-10T04:26:18.258Z,9.01
2023-01-10T04:26:49.445Z,8.69
2023-01-10T04:27:19.820Z,8.69
2023-01-10T04:27:51.316Z,8.69
2023-01-10T04:28:23.306Z,8.69
2023-01-10T04:28:53.014Z,8.69
2023-01-10T04:29:23.477Z,8.69
2023-01-10T04:29:54.812Z,8.69
2023-01-10T04:30:26.198Z,8.69
2023-01-10T04:30:57.773Z,8.69
2023-01-10T04:31:28.266Z,8.69
2023-01-10T04:31:58.814Z,8.69
2023-01-10T04:32:29.407Z,8.69
2023-01-10T04:33:01.043Z,8.69
2023-01-10T04:33:31.171Z,8.69
2023-01-10T04:34:02.871Z,8.69
2023-01-10T04:34:33.179Z,9.01
2023-01-10T04:35:05.998Z,9.01
2023-01-10T04:35:41.283Z,9.01
2023-01-10T04:36:07.180Z,9.33
2023-01-10T04:36:38.195Z,9.33
2023-01-10T04:37:09.124Z,9.73
2023-01-10T04:37:39.472Z,10.62
2023-01-10T04:38:10.891Z,10.62
2023-01-10T04:38:41.221Z,10.62
2023-01-10T04:39:13.150Z,11.50
2023-01-10T04:39:43.513Z,11.50
2023-01-10T04:40:16.083Z,12.07
2023-01-10T04:40:45.787Z,12.39
2023-01-10T04:41:16.858Z,12.39
2023-01-10T04:41:48.191Z,12.39
2023-01-10T04:42:19.164Z,12.39
2023-01-10T04:42:49.209Z,12.39
2023-01-10T04:43:21.263Z,12.39
2023-01-10T04:43:51.157Z,12.07
2023-01-10T04:44:22.879Z,12.39
2023-01-10T04:44:53.248Z,12.07
2023-01-10T04:45:25.866Z,11.90
2023-01-10T04:45:55.337Z,11.90
2023-01-10T04:46:26.871Z,11.90
2023-01-10T04:46:58.427Z,12.07
2023-01-10T04:47:28.861Z,12.07
2023-01-10T04:47:59.323Z,12.39
2023-01-10T04:48:30.870Z,12.39
2023-01-10T04:49:01.249Z,12.39
2023-01-10T04:49:32.865Z,12.39
2023-01-10T04:50:04.785Z,12.95
2023-01-10T04:50:35.004Z,13.68
2023-01-10T04:51:05.451Z,13.68
2023-01-10T04:51:37.421Z,13.68
2023-01-10T04:52:08.205Z,14.16
2023-01-10T04:52:38.867Z,14.32
2023-01-10T04:53:09.576Z,14.32
2023-01-10T04:53:41.315Z,14.32
2023-01-10T04:54:11.225Z,14.32
2023-01-10T04:54:43.090Z,14.16
2023-01-10T04:55:13.659Z,14.16
2023-01-10T04:55:45.438Z,14.32
2023-01-10T04:56:15.203Z,14.32
2023-01-10T04:56:46.879Z,14.32
2023-01-10T04:57:18.189Z,14.32
2023-01-10T04:57:48.840Z,14.32
2023-01-10T04:58:19.186Z,14.32
2023-01-10T04:58:53.956Z,14.32
2023-01-10T04:59:21.188Z,14.56
2023-01-10T04:59:53.043Z,14.56
2023-01-10T05:00:25.963Z,14.40
2023-01-10T05:00:58.250Z,13.84
2023-01-10T05:01:25.370Z,13.67
2023-01-10T05:01:56.937Z,13.84
2023-01-10T05:02:28.297Z,13.84
2023-01-10T05:02:59.078Z,13.84
2023-01-10T05:03:29.218Z,14.73
2023-01-10T05:04:01.212Z,14.89
2023-01-10T05:04:31.484Z,14.89
2023-01-10T05:05:03.452Z,15.61
2023-01-10T05:05:33.170Z,15.61
2023-01-10T05:06:04.831Z,15.45
2023-01-10T05:06:35.186Z,15.45
2023-01-10T05:07:07.504Z,14.89
2023-01-10T05:07:38.166Z,14.89
2023-01-10T05:08:09.173Z,14.56
2023-01-10T05:08:39.193Z,14.56
2023-01-10T05:09:11.204Z,14.80
2023-01-10T05:09:41.190Z,14.56
2023-01-10T05:10:13.471Z,14.56
2023-01-10T05:10:43.468Z,14.80
2023-01-10T05:11:14.977Z,14.80
2023-01-10T05:11:45.169Z,15.13
2023-01-10T05:12:16.760Z,14.80
2023-01-10T05:12:48.168Z,14.80
2023-01-10T05:13:18.868Z,14.56
2023-01-10T05:13:49.166Z,14.32
2023-01-10T05:14:20.817Z,14.56
2023-01-10T05:14:51.170Z,14.56
2023-01-10T05:15:23.693Z,14.32
2023-01-10T05:15:53.231Z,13.44
2023-01-10T05:16:25.030Z,13.44
2023-01-10T05:16:55.391Z,12.39
2023-01-10T05:17:26.876Z,12.39
2023-01-10T05:17:58.145Z,12.39
2023-01-10T05:18:28.797Z,12.39
2023-01-10T05:18:59.232Z,12.95
2023-01-10T05:19:30.476Z,12.39
2023-01-10T05:20:01.909Z,12.39
2023-01-10T05:20:37.666Z,12.95
2023-01-10T05:21:03.606Z,12.95
2023-01-10T05:21:35.014Z,14.08
2023-01-10T05:22:05.163Z,14.08
2023-01-10T05:22:36.750Z,14.56
2023-01-10T05:23:08.154Z,14.56
2023-01-10T05:23:38.884Z,14.56
2023-01-10T05:24:09.166Z,14.56
2023-01-10T05:24:46.637Z,13.84
2023-01-10T05:25:12.919Z,14.00
2023-01-10T05:25:42.196Z,14.00
2023-01-10T05:26:14.105Z,14.00
2023-01-10T05:26:44.278Z,13.51
2023-01-10T05:27:16.421Z,14.00
2023-01-10T05:27:46.286Z,14.00
2023-01-10T05:28:18.968Z,13.51
2023-01-10T05:28:48.170Z,13.51
2023-01-10T05:29:20.104Z,13.35
2023-01-10T05:29:50.148Z,13.35
2023-01-10T05:30:24.771Z,14.00
2023-01-10T05:30:52.203Z,14.00
2023-01-10T05:31:23.622Z,14.00
2023-01-10T05:31:54.864Z,14.00
2023-01-10T05:32:25.354Z,13.35
2023-01-10T05:32:56.843Z,13.03
2023-01-10T05:33:28.291Z,12.79
2023-01-10T05:33:59.218Z,13.03
2023-01-10T05:34:29.195Z,13.03
2023-01-10T05:35:01.792Z,13.35
2023-01-10T05:35:31.200Z,13.03
2023-01-10T05:36:03.153Z,13.92
2023-01-10T05:36:33.576Z,14.24
2023-01-10T05:37:04.825Z,14.24
2023-01-10T05:37:35.186Z,13.67
2023-01-10T05:38:07.038Z,13.35
2023-01-10T05:38:38.193Z,13.35
2023-01-10T05:39:08.977Z,13.03
2023-01-10T05:39:39.202Z,12.63
2023-01-10T05:40:11.352Z,12.07
2023-01-10T05:40:41.211Z,11.90
2023-01-10T05:41:13.014Z,11.90
2023-01-10T05:41:43.549Z,11.74
2023-01-10T05:42:15.392Z,11.74
2023-01-10T05:42:45.275Z,11.74
2023-01-10T05:43:16.991Z,12.07
2023-01-10T05:43:48.185Z,12.07
2023-01-10T05:44:19.379Z,12.07
2023-01-10T05:44:49.474Z,12.95
2023-01-10T05:45:22.145Z,12.07
2023-01-10T05:45:51.322Z,12.79
2023-01-10T05:46:22.816Z,12.07
2023-01-10T05:46:53.244Z,12.07
2023-01-10T05:47:25.761Z,12.07
2023-01-10T05:47:55.218Z,11.50
2023-01-10T05:48:27.303Z,12.07
2023-01-10T05:48:58.160Z,12.95
2023-01-10T05:49:28.831Z,13.35
2023-01-10T05:49:59.623Z,13.35
2023-01-10T05:50:31.896Z,13.35
2023-01-10T05:51:01.292Z,13.35
2023-01-10T05:51:32.795Z,12.63
2023-01-10T05:52:03.567Z,13.35
2023-01-10T05:52:34.988Z,12.63
2023-01-10T05:53:05.182Z,12.39
2023-01-10T05:53:37.193Z,12.23
2023-01-10T05:54:08.597Z,12.39
2023-01-10T05:54:38.842Z,12.23
2023-01-10T05:55:09.686Z,11.67
2023-01-10T05:55:41.471Z,11.67
2023-01-10T05:56:11.197Z,11.50
2023-01-10T05:56:43.276Z,10.94
2023-01-10T05:57:13.174Z,10.78
2023-01-10T05:57:44.835Z,10.94
2023-01-10T05:58:15.917Z,11.10
2023-01-10T05:58:49.379Z,11.10
2023-01-10T05:59:28.162Z,11.10
2023-01-10T05:59:48.883Z,10.94
2023-01-10T06:00:20.317Z,11.10
2023-01-10T06:00:51.721Z,11.10
2023-01-10T06:01:21.192Z,11.10
2023-01-10T06:01:53.059Z,11.10
2023-01-10T06:02:23.594Z,10.94
2023-01-10T06:02:55.132Z,10.94
2023-01-10T06:03:25.198Z,10.78
2023-01-10T06:03:56.891Z,10.78
2023-01-10T06:04:28.142Z,10.78
2023-01-10T06:04:59.216Z,10.46
2023-01-10T06:05:29.183Z,10.22
2023-01-10T06:06:01.968Z,9.49
2023-01-10T06:06:31.151Z,9.33
2023-01-10T06:07:02.892Z,9.33
2023-01-10T06:07:33.226Z,9.33
2023-01-10T06:08:04.970Z,9.33
2023-01-10T06:08:35.195Z,9.33
2023-01-10T06:09:07.071Z,9.33
2023-01-10T06:09:38.411Z,9.33
2023-01-10T06:10:09.325Z,9.33
2023-01-10T06:10:41.342Z,9.33
2023-01-10T06:11:10.920Z,9.33
2023-01-10T06:11:41.499Z,9.33
2023-01-10T06:12:12.945Z,9.01
2023-01-10T06:12:43.461Z,9.01
2023-01-10T06:13:14.876Z,8.69
2023-01-10T06:13:45.250Z,8.69
2023-01-10T06:14:17.727Z,9.01
2023-01-10T06:14:48.172Z,9.01
2023-01-10T06:15:19.610Z,9.01
2023-01-10T06:15:49.272Z,9.33
2023-01-10T06:16:20.826Z,9.33
2023-01-10T06:16:51.165Z,9.33
2023-01-10T06:17:22.940Z,9.33
2023-01-10T06:17:53.211Z,9.33
2023-01-10T06:18:25.223Z,9.49
2023-01-10T06:18:55.155Z,9.49
2023-01-10T06:19:26.780Z,9.33
2023-01-10T06:19:58.741Z,9.49
2023-01-10T06:20:34.587Z,9.65
2023-01-10T06:21:00.329Z,9.65
2023-01-10T06:21:30.178Z,9.65
2023-01-10T06:22:01.851Z,10.06
2023-01-10T06:22:32.188Z,10.06
2023-01-10T06:23:04.553Z,10.62
2023-01-10T06:23:34.851Z,10.62
2023-01-10T06:24:05.744Z,10.62
2023-01-10T06:24:36.179Z,10.22
2023-01-10T06:25:09.181Z,9.65
2023-01-10T06:25:38.141Z,9.65
2023-01-10T06:26:10.045Z,9.49
2023-01-10T06:26:40.400Z,9.49
2023-01-10T06:27:11.951Z,9.49
2023-01-10T06:27:42.150Z,9.49
2023-01-10T06:28:13.760Z,9.49
2023-01-10T06:28:44.157Z,9.49
2023-01-10T06:29:16.940Z,9.17
2023-01-10T06:29:46.395Z,9.01
2023-01-10T06:30:20.158Z,9.01
2023-01-10T06:30:48.218Z,9.01
2023-01-10T06:31:22.456Z,9.01
2023-01-10T06:31:50.750Z,8.85
2023-01-10T06:32:21.986Z,8.29
2023-01-10T06:32:52.250Z,8.29
2023-01-10T06:33:24.171Z,7.88
2023-01-10T06:33:54.211Z,8.29
2023-01-10T06:34:26.379Z,8.69
2023-01-10T06:34:56.660Z,8.69
2023-01-10T06:35:28.875Z,8.85
2023-01-10T06:36:07.195Z,8.85
2023-01-10T06:36:13.073Z,8.85
2023-01-10T06:36:51.339Z,8.85
2023-01-10T06:37:00.193Z,9.01
2023-01-10T06:37:32.117Z,9.01
2023-01-10T06:38:02.138Z,9.17
2023-01-10T06:38:34.781Z,9.33
2023-01-10T06:39:04.189Z,9.33
2023-01-10T06:39:35.955Z,9.33
2023-01-10T06:40:06.683Z,9.49
2023-01-10T06:40:39.087Z,9.65
2023-01-10T06:41:08.554Z,9.65
2023-01-10T06:41:40.297Z,9.65
2023-01-10T06:42:10.263Z,10.06
2023-01-10T06:42:42.770Z,10.06